Carolina, PR (00979)

7:26 PM AST on August 30, 2015 (GMT -0400)
Ciudad Jardin | | Change Station
CLOSE
Current Station
Personal Weather Station
Location: Carolina, PR
Elevation: 10 ft
Nearby Weather Stations

Elev 10 ft 18.37 °N, 65.93 °W | Updated 3 minutes ago

Scattered Clouds
Scattered Clouds
83.1 °F
Feels Like 93 °F
N
2.0
Wind Variable Wind from East
Gusts 4.0 mph

Today
High -- | Low -- °F
--% Chance of Precip.
Yesterday
High -- | Low -- °F
Precip. -- in
6:08 AM 6:39 PM
Full, 98% visible
Pressure 30.01 in
Visibility 10.0 miles
Clouds Few 1800 ft
Scattered Clouds 3200 ft
Scattered Clouds 10000 ft
Heat Index 93 °F
Dew Point 78 °F
Humidity 84%
Rainfall 0.33 in
Snow Depth Not available.
UV 0 out of 12
Pollen Not available.
Air Quality Not available.
Flu Activity Not available.
METAR TJSJ 302256Z 08007KT 10SM FEW018 SCT032 SCT100 28/25 A3001 RMK AO2 SLP162 T02830250
Pressure 30.01 in
Visibility 10.0 miles
Clouds Few 1800 ft
Scattered Clouds 3200 ft
Scattered Clouds 10000 ft
Heat Index 93 °F
Dew Point 78 °F
Humidity 84%
Rainfall 0.33 in
Snow Depth Not available.
UV 0 out of 12
Pollen Not available.
Air Quality Not available.
Flu Activity Not available.
METAR TJSJ 302256Z 08007KT 10SM FEW018 SCT032 SCT100 28/25 A3001 RMK AO2 SLP162 T02830250

10-Day Weather Forecast

×

Almanac

Astronomy

Aug. 30, 2015 Rise Set
Actual Time
Civil Twilight
Nautical Twilight
Astronomical Twilight
Moon
Length of Visible Light
Length of Day
Tomorrow will be .
, % of the Moon is Illuminated

Today's Extremes

State Highs State Lows

Community

WunderPhotos

Upload Photos

1,851,084 photos uploaded!

WunderBlogs® & News

Nearby

Air Quality

  Air Quality AQ Index Pollutant
Not available.

Snow Depth

Station Depth Elevation

Earthquake Activity

City Distance Mag. Time & Date
Minimum magnitude displayed is 2.5.

Coastal Water Temperatures

Place Temperature

Stations

Nearby Weather Stations

Station Location Temp. Windchill Dew Point Humidity Wind Precip. Elev Updated Type